sensor_id;sensor_type;location;lat;lon;timestamp;P1;durP1;ratioP1;P2;durP2;ratioP2
52102;SDS011;38101;53.126;6.878;2023-08-07T00:00:23;6.40;;;4.60;;
52102;SDS011;38101;53.126;6.878;2023-08-07T00:02:49;7.55;;;4.25;;
52102;SDS011;38101;53.126;6.878;2023-08-07T00:05:15;5.90;;;4.35;;
52102;SDS011;38101;53.126;6.878;2023-08-07T00:07:42;4.57;;;3.90;;
52102;SDS011;38101;53.126;6.878;2023-08-07T00:10:08;6.75;;;4.10;;
52102;SDS011;38101;53.126;6.878;2023-08-07T00:12:34;6.45;;;4.03;;
52102;SDS011;38101;53.126;6.878;2023-08-07T00:14:59;6.20;;;3.75;;
52102;SDS011;38101;53.126;6.878;2023-08-07T00:17:26;6.18;;;3.53;;
52102;SDS011;38101;53.126;6.878;2023-08-07T00:19:52;4.95;;;3.55;;
52102;SDS011;38101;53.126;6.878;2023-08-07T00:22:17;5.70;;;3.50;;
52102;SDS011;38101;53.126;6.878;2023-08-07T00:24:43;6.25;;;3.63;;
52102;SDS011;38101;53.126;6.878;2023-08-07T00:27:09;4.72;;;3.63;;
52102;SDS011;38101;53.126;6.878;2023-08-07T00:29:40;5.25;;;3.30;;
52102;SDS011;38101;53.126;6.878;2023-08-07T00:32:06;6.03;;;3.53;;
52102;SDS011;38101;53.126;6.878;2023-08-07T00:34:32;4.85;;;3.28;;
52102;SDS011;38101;53.126;6.878;2023-08-07T00:36:58;5.15;;;3.05;;
52102;SDS011;38101;53.126;6.878;2023-08-07T00:39:23;5.15;;;3.17;;
52102;SDS011;38101;53.126;6.878;2023-08-07T00:41:49;4.60;;;3.28;;
52102;SDS011;38101;53.126;6.878;2023-08-07T00:44:15;5.53;;;3.33;;
52102;SDS011;38101;53.126;6.878;2023-08-07T00:46:41;5.00;;;3.28;;
52102;SDS011;38101;53.126;6.878;2023-08-07T00:49:07;7.25;;;3.20;;
52102;SDS011;38101;53.126;6.878;2023-08-07T00:51:36;6.03;;;3.08;;
52102;SDS011;38101;53.126;6.878;2023-08-07T00:54:03;5.35;;;3.22;;
52102;SDS011;38101;53.126;6.878;2023-08-07T00:56:30;4.10;;;2.90;;
52102;SDS011;38101;53.126;6.878;2023-08-07T00:58:57;5.05;;;3.17;;
52102;SDS011;38101;53.126;6.878;2023-08-07T01:01:24;7.53;;;3.40;;
52102;SDS011;38101;53.126;6.878;2023-08-07T01:03:50;6.28;;;3.55;;
52102;SDS011;38101;53.126;6.878;2023-08-07T01:06:16;7.07;;;3.50;;
52102;SDS011;38101;53.126;6.878;2023-08-07T01:08:42;5.05;;;3.00;;
52102;SDS011;38101;53.126;6.878;2023-08-07T01:11:14;6.25;;;3.97;;
52102;SDS011;38101;53.126;6.878;2023-08-07T01:19:25;6.25;;;4.43;;
52102;SDS011;38101;53.126;6.878;2023-08-07T01:24:38;7.88;;;3.80;;
52102;SDS011;38101;53.126;6.878;2023-08-07T01:29:44;5.53;;;3.65;;
52102;SDS011;38101;53.126;6.878;2023-08-07T01:32:14;4.40;;;3.22;;
52102;SDS011;38101;53.126;6.878;2023-08-07T01:34:47;5.38;;;3.40;;
52102;SDS011;38101;53.126;6.878;2023-08-07T01:37:15;6.07;;;3.58;;
52102;SDS011;38101;53.126;6.878;2023-08-07T01:39:42;5.63;;;3.53;;
52102;SDS011;38101;53.126;6.878;2023-08-07T01:42:09;6.88;;;3.70;;
52102;SDS011;38101;53.126;6.878;2023-08-07T01:44:36;7.57;;;3.88;;
52102;SDS011;38101;53.126;6.878;2023-08-07T01:47:02;6.55;;;4.05;;
52102;SDS011;38101;53.126;6.878;2023-08-07T01:49:28;5.05;;;3.60;;
52102;SDS011;38101;53.126;6.878;2023-08-07T01:51:53;7.68;;;3.55;;
52102;SDS011;38101;53.126;6.878;2023-08-07T01:54:19;4.35;;;3.35;;
52102;SDS011;38101;53.126;6.878;2023-08-07T01:56:45;4.90;;;3.45;;
52102;SDS011;38101;53.126;6.878;2023-08-07T01:59:10;4.57;;;3.28;;
52102;SDS011;38101;53.126;6.878;2023-08-07T02:01:36;5.43;;;3.50;;
52102;SDS011;38101;53.126;6.878;2023-08-07T02:04:01;5.40;;;3.00;;
52102;SDS011;38101;53.126;6.878;2023-08-07T02:06:27;5.72;;;3.08;;
52102;SDS011;38101;53.126;6.878;2023-08-07T02:08:53;7.13;;;3.30;;
52102;SDS011;38101;53.126;6.878;2023-08-07T02:11:18;6.38;;;2.88;;
52102;SDS011;38101;53.126;6.878;2023-08-07T02:13:44;6.10;;;2.90;;
52102;SDS011;38101;53.126;6.878;2023-08-07T02:16:10;4.93;;;3.10;;
52102;SDS011;38101;53.126;6.878;2023-08-07T02:18:35;4.70;;;2.88;;
52102;SDS011;38101;53.126;6.878;2023-08-07T02:21:01;5.68;;;3.05;;
52102;SDS011;38101;53.126;6.878;2023-08-07T02:23:27;7.03;;;3.30;;
52102;SDS011;38101;53.126;6.878;2023-08-07T02:25:54;6.18;;;2.90;;
52102;SDS011;38101;53.126;6.878;2023-08-07T02:28:19;5.18;;;2.95;;
52102;SDS011;38101;53.126;6.878;2023-08-07T02:30:45;5.35;;;2.97;;
52102;SDS011;38101;53.126;6.878;2023-08-07T02:33:16;4.88;;;2.90;;
52102;SDS011;38101;53.126;6.878;2023-08-07T02:35:42;4.80;;;2.92;;
52102;SDS011;38101;53.126;6.878;2023-08-07T02:38:07;5.35;;;2.90;;
52102;SDS011;38101;53.126;6.878;2023-08-07T02:40:33;3.85;;;3.10;;
52102;SDS011;38101;53.126;6.878;2023-08-07T02:42:59;5.65;;;2.92;;
52102;SDS011;38101;53.126;6.878;2023-08-07T02:45:25;7.47;;;3.47;;
52102;SDS011;38101;53.126;6.878;2023-08-07T02:47:50;4.70;;;2.75;;
52102;SDS011;38101;53.126;6.878;2023-08-07T02:50:16;6.78;;;2.90;;
52102;SDS011;38101;53.126;6.878;2023-08-07T02:52:41;5.38;;;3.22;;
52102;SDS011;38101;53.126;6.878;2023-08-07T02:55:07;8.82;;;3.17;;
52102;SDS011;38101;53.126;6.878;2023-08-07T02:57:33;7.55;;;2.80;;
52102;SDS011;38101;53.126;6.878;2023-08-07T02:59:59;5.55;;;3.10;;
52102;SDS011;38101;53.126;6.878;2023-08-07T03:02:24;7.28;;;3.10;;
52102;SDS011;38101;53.126;6.878;2023-08-07T03:04:50;5.80;;;2.72;;
52102;SDS011;38101;53.126;6.878;2023-08-07T03:07:16;6.53;;;2.97;;
52102;SDS011;38101;53.126;6.878;2023-08-07T03:09:44;7.28;;;3.38;;
52102;SDS011;38101;53.126;6.878;2023-08-07T03:12:11;7.45;;;3.10;;
52102;SDS011;38101;53.126;6.878;2023-08-07T03:14:37;6.25;;;2.80;;
52102;SDS011;38101;53.126;6.878;2023-08-07T03:17:02;9.10;;;3.03;;
52102;SDS011;38101;53.126;6.878;2023-08-07T03:19:28;7.65;;;3.25;;
52102;SDS011;38101;53.126;6.878;2023-08-07T03:21:54;6.43;;;3.17;;
52102;SDS011;38101;53.126;6.878;2023-08-07T03:24:19;5.35;;;3.00;;
52102;SDS011;38101;53.126;6.878;2023-08-07T03:26:45;6.57;;;2.95;;
52102;SDS011;38101;53.126;6.878;2023-08-07T03:29:12;7.00;;;3.10;;
52102;SDS011;38101;53.126;6.878;2023-08-07T03:31:38;6.53;;;2.90;;
52102;SDS011;38101;53.126;6.878;2023-08-07T03:34:03;9.52;;;3.35;;
52102;SDS011;38101;53.126;6.878;2023-08-07T03:36:29;6.43;;;3.08;;
52102;SDS011;38101;53.126;6.878;2023-08-07T03:38:55;7.25;;;2.97;;
52102;SDS011;38101;53.126;6.878;2023-08-07T03:41:20;7.82;;;3.00;;
52102;SDS011;38101;53.126;6.878;2023-08-07T03:43:46;7.30;;;3.00;;
52102;SDS011;38101;53.126;6.878;2023-08-07T03:46:12;5.68;;;2.70;;
52102;SDS011;38101;53.126;6.878;2023-08-07T03:48:38;7.53;;;2.95;;
52102;SDS011;38101;53.126;6.878;2023-08-07T03:51:04;8.18;;;3.08;;
52102;SDS011;38101;53.126;6.878;2023-08-07T03:53:30;6.00;;;2.85;;
52102;SDS011;38101;53.126;6.878;2023-08-07T03:55:56;7.57;;;3.50;;
52102;SDS011;38101;53.126;6.878;2023-08-07T03:58:21;7.20;;;3.10;;
52102;SDS011;38101;53.126;6.878;2023-08-07T04:00:47;6.43;;;3.03;;
52102;SDS011;38101;53.126;6.878;2023-08-07T04:03:13;6.55;;;2.83;;
52102;SDS011;38101;53.126;6.878;2023-08-07T04:05:38;8.55;;;3.03;;
52102;SDS011;38101;53.126;6.878;2023-08-07T04:08:04;8.15;;;3.10;;
52102;SDS011;38101;53.126;6.878;2023-08-07T04:10:30;5.90;;;2.72;;
52102;SDS011;38101;53.126;6.878;2023-08-07T04:12:55;9.43;;;3.10;;
52102;SDS011;38101;53.126;6.878;2023-08-07T04:15:21;5.70;;;2.90;;
52102;SDS011;38101;53.126;6.878;2023-08-07T04:17:47;11.10;;;3.30;;
52102;SDS011;38101;53.126;6.878;2023-08-07T04:20:12;5.68;;;3.00;;
52102;SDS011;38101;53.126;6.878;2023-08-07T04:22:38;5.85;;;2.80;;
52102;SDS011;38101;53.126;6.878;2023-08-07T04:25:03;7.15;;;2.72;;
52102;SDS011;38101;53.126;6.878;2023-08-07T04:27:29;7.45;;;2.83;;
52102;SDS011;38101;53.126;6.878;2023-08-07T04:29:55;5.18;;;2.35;;
52102;SDS011;38101;53.126;6.878;2023-08-07T04:32:21;7.18;;;2.55;;
52102;SDS011;38101;53.126;6.878;2023-08-07T04:34:47;5.10;;;2.17;;
52102;SDS011;38101;53.126;6.878;2023-08-07T04:37:12;8.13;;;2.80;;
52102;SDS011;38101;53.126;6.878;2023-08-07T04:39:38;6.20;;;2.45;;
52102;SDS011;38101;53.126;6.878;2023-08-07T04:42:03;5.28;;;2.55;;
52102;SDS011;38101;53.126;6.878;2023-08-07T04:44:29;7.80;;;2.85;;
52102;SDS011;38101;53.126;6.878;2023-08-07T04:46:55;6.00;;;2.70;;
52102;SDS011;38101;53.126;6.878;2023-08-07T04:49:21;8.43;;;3.10;;
52102;SDS011;38101;53.126;6.878;2023-08-07T04:51:47;6.75;;;2.55;;
52102;SDS011;38101;53.126;6.878;2023-08-07T04:54:12;7.05;;;2.75;;
52102;SDS011;38101;53.126;6.878;2023-08-07T04:56:38;6.03;;;2.80;;
52102;SDS011;38101;53.126;6.878;2023-08-07T04:59:04;7.30;;;3.67;;
52102;SDS011;38101;53.126;6.878;2023-08-07T05:01:29;7.30;;;2.97;;
52102;SDS011;38101;53.126;6.878;2023-08-07T05:03:55;8.13;;;3.30;;
52102;SDS011;38101;53.126;6.878;2023-08-07T05:06:21;7.85;;;3.33;;
52102;SDS011;38101;53.126;6.878;2023-08-07T05:08:46;9.70;;;3.67;;
52102;SDS011;38101;53.126;6.878;2023-08-07T05:11:12;8.25;;;3.85;;
52102;SDS011;38101;53.126;6.878;2023-08-07T05:13:38;9.40;;;3.10;;
52102;SDS011;38101;53.126;6.878;2023-08-07T05:16:03;8.13;;;3.50;;
52102;SDS011;38101;53.126;6.878;2023-08-07T05:18:29;8.05;;;2.90;;
52102;SDS011;38101;53.126;6.878;2023-08-07T05:20:54;9.75;;;3.58;;
52102;SDS011;38101;53.126;6.878;2023-08-07T05:23:20;8.02;;;3.00;;
52102;SDS011;38101;53.126;6.878;2023-08-07T05:25:46;8.27;;;3.13;;
52102;SDS011;38101;53.126;6.878;2023-08-07T05:28:12;7.45;;;3.55;;
52102;SDS011;38101;53.126;6.878;2023-08-07T05:30:38;8.60;;;3.45;;
52102;SDS011;38101;53.126;6.878;2023-08-07T05:33:04;10.95;;;3.78;;
52102;SDS011;38101;53.126;6.878;2023-08-07T05:35:30;10.80;;;4.22;;
52102;SDS011;38101;53.126;6.878;2023-08-07T05:37:55;9.63;;;3.80;;
52102;SDS011;38101;53.126;6.878;2023-08-07T05:40:21;8.40;;;3.88;;
52102;SDS011;38101;53.126;6.878;2023-08-07T05:42:47;8.35;;;3.45;;
52102;SDS011;38101;53.126;6.878;2023-08-07T05:45:12;10.77;;;4.00;;
52102;SDS011;38101;53.126;6.878;2023-08-07T05:47:38;7.50;;;3.80;;
52102;SDS011;38101;53.126;6.878;2023-08-07T05:50:04;8.23;;;3.42;;
52102;SDS011;38101;53.126;6.878;2023-08-07T05:52:30;10.00;;;3.60;;
52102;SDS011;38101;53.126;6.878;2023-08-07T05:54:56;9.65;;;4.15;;
52102;SDS011;38101;53.126;6.878;2023-08-07T05:57:22;6.90;;;3.38;;
52102;SDS011;38101;53.126;6.878;2023-08-07T05:59:47;12.75;;;3.90;;
52102;SDS011;38101;53.126;6.878;2023-08-07T06:02:13;9.60;;;3.42;;
52102;SDS011;38101;53.126;6.878;2023-08-07T06:04:39;11.32;;;4.15;;
52102;SDS011;38101;53.126;6.878;2023-08-07T06:07:05;11.57;;;4.38;;
52102;SDS011;38101;53.126;6.878;2023-08-07T06:09:32;10.88;;;3.67;;
52102;SDS011;38101;53.126;6.878;2023-08-07T06:11:58;8.95;;;4.10;;
52102;SDS011;38101;53.126;6.878;2023-08-07T06:14:24;9.35;;;3.72;;
52102;SDS011;38101;53.126;6.878;2023-08-07T06:16:50;11.88;;;4.20;;
52102;SDS011;38101;53.126;6.878;2023-08-07T06:19:16;11.77;;;3.90;;
52102;SDS011;38101;53.126;6.878;2023-08-07T06:21:42;10.07;;;4.07;;
52102;SDS011;38101;53.126;6.878;2023-08-07T06:24:09;9.02;;;3.72;;
52102;SDS011;38101;53.126;6.878;2023-08-07T06:26:35;8.10;;;3.50;;
52102;SDS011;38101;53.126;6.878;2023-08-07T06:29:01;9.55;;;3.72;;
52102;SDS011;38101;53.126;6.878;2023-08-07T06:31:26;8.07;;;3.28;;
52102;SDS011;38101;53.126;6.878;2023-08-07T06:33:52;7.53;;;3.00;;
52102;SDS011;38101;53.126;6.878;2023-08-07T06:36:18;12.88;;;3.20;;
52102;SDS011;38101;53.126;6.878;2023-08-07T06:38:43;9.60;;;3.67;;
52102;SDS011;38101;53.126;6.878;2023-08-07T06:41:09;10.15;;;3.45;;
52102;SDS011;38101;53.126;6.878;2023-08-07T06:43:34;10.75;;;3.38;;
52102;SDS011;38101;53.126;6.878;2023-08-07T06:46:00;9.13;;;3.20;;
52102;SDS011;38101;53.126;6.878;2023-08-07T06:48:26;10.30;;;3.65;;
52102;SDS011;38101;53.126;6.878;2023-08-07T06:50:52;8.85;;;3.45;;
52102;SDS011;38101;53.126;6.878;2023-08-07T06:53:17;6.10;;;2.90;;
52102;SDS011;38101;53.126;6.878;2023-08-07T06:55:44;8.27;;;3.28;;
52102;SDS011;38101;53.126;6.878;2023-08-07T06:58:10;13.63;;;3.25;;
52102;SDS011;38101;53.126;6.878;2023-08-07T07:00:36;8.90;;;3.42;;
52102;SDS011;38101;53.126;6.878;2023-08-07T07:03:02;8.77;;;3.33;;
52102;SDS011;38101;53.126;6.878;2023-08-07T07:05:28;9.45;;;3.67;;
52102;SDS011;38101;53.126;6.878;2023-08-07T07:07:55;9.52;;;2.92;;
52102;SDS011;38101;53.126;6.878;2023-08-07T07:10:21;8.18;;;2.88;;
52102;SDS011;38101;53.126;6.878;2023-08-07T07:12:46;7.20;;;3.25;;
52102;SDS011;38101;53.126;6.878;2023-08-07T07:15:13;9.98;;;3.30;;
52102;SDS011;38101;53.126;6.878;2023-08-07T07:17:39;5.97;;;2.85;;
52102;SDS011;38101;53.126;6.878;2023-08-07T07:20:04;8.55;;;3.13;;
52102;SDS011;38101;53.126;6.878;2023-08-07T07:22:30;8.73;;;3.38;;
52102;SDS011;38101;53.126;6.878;2023-08-07T07:24:56;9.07;;;3.40;;
52102;SDS011;38101;53.126;6.878;2023-08-07T07:27:22;10.75;;;3.20;;
52102;SDS011;38101;53.126;6.878;2023-08-07T07:29:50;8.27;;;3.15;;
52102;SDS011;38101;53.126;6.878;2023-08-07T07:32:16;11.48;;;4.40;;
52102;SDS011;38101;53.126;6.878;2023-08-07T07:34:41;7.20;;;3.30;;
52102;SDS011;38101;53.126;6.878;2023-08-07T07:37:07;7.97;;;3.25;;
52102;SDS011;38101;53.126;6.878;2023-08-07T07:39:34;9.75;;;3.60;;
52102;SDS011;38101;53.126;6.878;2023-08-07T07:42:00;9.25;;;3.50;;
52102;SDS011;38101;53.126;6.878;2023-08-07T07:44:26;13.40;;;3.45;;
52102;SDS011;38101;53.126;6.878;2023-08-07T07:46:52;9.63;;;3.60;;
52102;SDS011;38101;53.126;6.878;2023-08-07T07:49:18;9.30;;;3.53;;
52102;SDS011;38101;53.126;6.878;2023-08-07T07:51:43;10.50;;;3.80;;
52102;SDS011;38101;53.126;6.878;2023-08-07T07:54:09;11.70;;;3.88;;
52102;SDS011;38101;53.126;6.878;2023-08-07T07:56:35;12.75;;;3.42;;
52102;SDS011;38101;53.126;6.878;2023-08-07T07:59:01;6.03;;;3.10;;
52102;SDS011;38101;53.126;6.878;2023-08-07T08:01:27;9.07;;;3.70;;
52102;SDS011;38101;53.126;6.878;2023-08-07T08:03:53;9.63;;;3.58;;
52102;SDS011;38101;53.126;6.878;2023-08-07T08:06:19;7.32;;;2.90;;
52102;SDS011;38101;53.126;6.878;2023-08-07T08:08:45;8.77;;;3.85;;
52102;SDS011;38101;53.126;6.878;2023-08-07T08:11:10;8.52;;;3.65;;
52102;SDS011;38101;53.126;6.878;2023-08-07T08:13:36;7.97;;;3.10;;
52102;SDS011;38101;53.126;6.878;2023-08-07T08:16:04;9.85;;;3.25;;
52102;SDS011;38101;53.126;6.878;2023-08-07T08:18:30;8.00;;;3.42;;
52102;SDS011;38101;53.126;6.878;2023-08-07T08:20:56;11.15;;;3.80;;
52102;SDS011;38101;53.126;6.878;2023-08-07T08:23:22;6.88;;;3.20;;
52102;SDS011;38101;53.126;6.878;2023-08-07T08:25:48;9.30;;;3.00;;
52102;SDS011;38101;53.126;6.878;2023-08-07T08:28:14;10.20;;;3.72;;
52102;SDS011;38101;53.126;6.878;2023-08-07T08:30:40;8.20;;;3.10;;
52102;SDS011;38101;53.126;6.878;2023-08-07T08:33:06;5.93;;;2.88;;
52102;SDS011;38101;53.126;6.878;2023-08-07T08:35:34;9.70;;;3.35;;
52102;SDS011;38101;53.126;6.878;2023-08-07T08:38:00;7.55;;;3.03;;
52102;SDS011;38101;53.126;6.878;2023-08-07T08:40:28;6.32;;;3.03;;
52102;SDS011;38101;53.126;6.878;2023-08-07T08:42:55;7.25;;;3.35;;
52102;SDS011;38101;53.126;6.878;2023-08-07T08:45:25;7.97;;;3.30;;
52102;SDS011;38101;53.126;6.878;2023-08-07T08:47:52;12.77;;;3.50;;
52102;SDS011;38101;53.126;6.878;2023-08-07T08:50:24;10.55;;;3.40;;
52102;SDS011;38101;53.126;6.878;2023-08-07T08:52:51;10.77;;;3.78;;
52102;SDS011;38101;53.126;6.878;2023-08-07T08:55:19;8.35;;;3.05;;
52102;SDS011;38101;53.126;6.878;2023-08-07T08:57:46;11.18;;;3.30;;
52102;SDS011;38101;53.126;6.878;2023-08-07T09:00:13;12.45;;;3.58;;
52102;SDS011;38101;53.126;6.878;2023-08-07T09:02:50;10.95;;;3.88;;
52102;SDS011;38101;53.126;6.878;2023-08-07T09:05:18;9.98;;;4.07;;
52102;SDS011;38101;53.126;6.878;2023-08-07T09:07:45;6.45;;;3.10;;
52102;SDS011;38101;53.126;6.878;2023-08-07T09:10:12;10.15;;;3.33;;
52102;SDS011;38101;53.126;6.878;2023-08-07T09:12:44;7.65;;;3.10;;
52102;SDS011;38101;53.126;6.878;2023-08-07T09:15:16;9.52;;;3.22;;
52102;SDS011;38101;53.126;6.878;2023-08-07T09:17:44;10.38;;;3.33;;
52102;SDS011;38101;53.126;6.878;2023-08-07T09:20:11;7.82;;;3.03;;
52102;SDS011;38101;53.126;6.878;2023-08-07T09:22:39;7.40;;;2.40;;
52102;SDS011;38101;53.126;6.878;2023-08-07T09:25:06;5.15;;;2.38;;
52102;SDS011;38101;53.126;6.878;2023-08-07T09:27:32;9.23;;;2.95;;
52102;SDS011;38101;53.126;6.878;2023-08-07T09:29:58;9.02;;;3.25;;
52102;SDS011;38101;53.126;6.878;2023-08-07T09:32:24;10.23;;;2.95;;
52102;SDS011;38101;53.126;6.878;2023-08-07T09:34:50;6.18;;;2.53;;
52102;SDS011;38101;53.126;6.878;2023-08-07T09:37:20;7.97;;;2.88;;
52102;SDS011;38101;53.126;6.878;2023-08-07T09:39:45;9.57;;;2.90;;
52102;SDS011;38101;53.126;6.878;2023-08-07T09:42:15;8.30;;;2.88;;
52102;SDS011;38101;53.126;6.878;2023-08-07T09:44:41;8.43;;;2.70;;
52102;SDS011;38101;53.126;6.878;2023-08-07T09:47:11;11.60;;;3.22;;
52102;SDS011;38101;53.126;6.878;2023-08-07T09:49:39;8.52;;;2.80;;
52102;SDS011;38101;53.126;6.878;2023-08-07T09:52:05;8.43;;;2.90;;
52102;SDS011;38101;53.126;6.878;2023-08-07T09:54:32;7.05;;;2.70;;
52102;SDS011;38101;53.126;6.878;2023-08-07T09:56:59;8.88;;;2.83;;
52102;SDS011;38101;53.126;6.878;2023-08-07T09:59:26;6.60;;;2.85;;
52102;SDS011;38101;53.126;6.878;2023-08-07T10:01:53;6.10;;;2.80;;
52102;SDS011;38101;53.126;6.878;2023-08-07T10:04:23;10.38;;;3.22;;
52102;SDS011;38101;53.126;6.878;2023-08-07T10:06:49;8.05;;;3.40;;
52102;SDS011;38101;53.126;6.878;2023-08-07T10:09:16;6.68;;;2.85;;
52102;SDS011;38101;53.126;6.878;2023-08-07T10:11:42;7.53;;;3.08;;
52102;SDS011;38101;53.126;6.878;2023-08-07T10:14:12;6.05;;;2.22;;
52102;SDS011;38101;53.126;6.878;2023-08-07T10:16:39;7.55;;;2.50;;
52102;SDS011;38101;53.126;6.878;2023-08-07T10:19:06;7.22;;;2.80;;
52102;SDS011;38101;53.126;6.878;2023-08-07T10:21:38;8.05;;;2.90;;
52102;SDS011;38101;53.126;6.878;2023-08-07T10:24:05;5.82;;;2.55;;
52102;SDS011;38101;53.126;6.878;2023-08-07T10:26:35;5.47;;;2.15;;
52102;SDS011;38101;53.126;6.878;2023-08-07T10:29:06;7.63;;;2.80;;
52102;SDS011;38101;53.126;6.878;2023-08-07T10:31:35;6.40;;;3.05;;
52102;SDS011;38101;53.126;6.878;2023-08-07T10:34:03;5.10;;;2.60;;
52102;SDS011;38101;53.126;6.878;2023-08-07T10:36:32;7.72;;;2.67;;
52102;SDS011;38101;53.126;6.878;2023-08-07T10:39:08;6.57;;;3.00;;
52102;SDS011;38101;53.126;6.878;2023-08-07T10:41:42;8.45;;;3.05;;
52102;SDS011;38101;53.126;6.878;2023-08-07T10:44:21;5.82;;;2.67;;
52102;SDS011;38101;53.126;6.878;2023-08-07T10:46:50;9.15;;;3.00;;
52102;SDS011;38101;53.126;6.878;2023-08-07T10:52:15;7.85;;;2.83;;
52102;SDS011;38101;53.126;6.878;2023-08-07T10:54:41;8.52;;;3.00;;
52102;SDS011;38101;53.126;6.878;2023-08-07T10:57:13;7.80;;;2.85;;
52102;SDS011;38101;53.126;6.878;2023-08-07T11:02:24;7.88;;;3.05;;
52102;SDS011;38101;53.126;6.878;2023-08-07T11:04:51;10.05;;;3.72;;
52102;SDS011;38101;53.126;6.878;2023-08-07T11:07:27;11.50;;;3.10;;
52102;SDS011;38101;53.126;6.878;2023-08-07T11:09:55;7.07;;;2.45;;
52102;SDS011;38101;53.126;6.878;2023-08-07T11:12:27;8.30;;;2.60;;
52102;SDS011;38101;53.126;6.878;2023-08-07T11:14:54;5.25;;;2.28;;
52102;SDS011;38101;53.126;6.878;2023-08-07T11:17:26;6.53;;;2.17;;
52102;SDS011;38101;53.126;6.878;2023-08-07T11:19:53;7.15;;;2.40;;
52102;SDS011;38101;53.126;6.878;2023-08-07T11:22:20;4.82;;;2.28;;
52102;SDS011;38101;53.126;6.878;2023-08-07T11:24:46;5.30;;;2.25;;
52102;SDS011;38101;53.126;6.878;2023-08-07T11:27:12;4.35;;;2.10;;
52102;SDS011;38101;53.126;6.878;2023-08-07T11:29:38;7.65;;;2.38;;
52102;SDS011;38101;53.126;6.878;2023-08-07T11:32:03;6.28;;;2.38;;
52102;SDS011;38101;53.126;6.878;2023-08-07T11:34:30;4.25;;;1.95;;
52102;SDS011;38101;53.126;6.878;2023-08-07T11:36:56;6.03;;;2.10;;
52102;SDS011;38101;53.126;6.878;2023-08-07T11:39:22;5.28;;;2.30;;
52102;SDS011;38101;53.126;6.878;2023-08-07T11:41:52;6.18;;;2.50;;
52102;SDS011;38101;53.126;6.878;2023-08-07T11:44:18;7.15;;;2.60;;
52102;SDS011;38101;53.126;6.878;2023-08-07T11:46:44;6.95;;;2.30;;
52102;SDS011;38101;53.126;6.878;2023-08-07T11:49:10;8.48;;;2.58;;
52102;SDS011;38101;53.126;6.878;2023-08-07T11:51:37;7.43;;;2.50;;
52102;SDS011;38101;53.126;6.878;2023-08-07T11:54:03;6.88;;;2.50;;
52102;SDS011;38101;53.126;6.878;2023-08-07T11:56:29;6.93;;;2.63;;
52102;SDS011;38101;53.126;6.878;2023-08-07T11:58:54;7.22;;;2.33;;
52102;SDS011;38101;53.126;6.878;2023-08-07T12:01:22;4.78;;;2.10;;
52102;SDS011;38101;53.126;6.878;2023-08-07T12:04:08;5.53;;;2.00;;
52102;SDS011;38101;53.126;6.878;2023-08-07T12:06:34;6.47;;;2.08;;
52102;SDS011;38101;53.126;6.878;2023-08-07T12:09:01;5.85;;;2.15;;
52102;SDS011;38101;53.126;6.878;2023-08-07T12:11:31;5.40;;;2.40;;
52102;SDS011;38101;53.126;6.878;2023-08-07T12:13:59;4.22;;;1.63;;
52102;SDS011;38101;53.126;6.878;2023-08-07T12:16:25;3.42;;;1.98;;
52102;SDS011;38101;53.126;6.878;2023-08-07T12:18:51;4.68;;;1.70;;
52102;SDS011;38101;53.126;6.878;2023-08-07T12:21:17;3.45;;;1.40;;
52102;SDS011;38101;53.126;6.878;2023-08-07T12:23:45;4.57;;;1.80;;
52102;SDS011;38101;53.126;6.878;2023-08-07T12:26:14;3.78;;;1.83;;
52102;SDS011;38101;53.126;6.878;2023-08-07T12:28:41;2.85;;;1.90;;
52102;SDS011;38101;53.126;6.878;2023-08-07T12:31:07;5.75;;;2.40;;
52102;SDS011;38101;53.126;6.878;2023-08-07T12:33:33;4.93;;;2.10;;
52102;SDS011;38101;53.126;6.878;2023-08-07T12:35:59;4.22;;;1.98;;
52102;SDS011;38101;53.126;6.878;2023-08-07T12:38:26;5.60;;;2.03;;
52102;SDS011;38101;53.126;6.878;2023-08-07T12:40:52;5.45;;;2.20;;
52102;SDS011;38101;53.126;6.878;2023-08-07T12:43:18;4.65;;;2.05;;
52102;SDS011;38101;53.126;6.878;2023-08-07T12:45:43;6.93;;;2.42;;
52102;SDS011;38101;53.126;6.878;2023-08-07T12:48:09;5.03;;;2.45;;
52102;SDS011;38101;53.126;6.878;2023-08-07T12:50:35;5.82;;;2.40;;
52102;SDS011;38101;53.126;6.878;2023-08-07T12:53:01;6.70;;;2.28;;
52102;SDS011;38101;53.126;6.878;2023-08-07T12:55:27;7.05;;;2.80;;
52102;SDS011;38101;53.126;6.878;2023-08-07T12:57:53;6.07;;;2.25;;
52102;SDS011;38101;53.126;6.878;2023-08-07T13:00:19;4.88;;;2.75;;
52102;SDS011;38101;53.126;6.878;2023-08-07T13:02:46;5.60;;;2.42;;
52102;SDS011;38101;53.126;6.878;2023-08-07T13:05:13;6.63;;;2.60;;
52102;SDS011;38101;53.126;6.878;2023-08-07T13:07:40;6.32;;;2.72;;
52102;SDS011;38101;53.126;6.878;2023-08-07T13:10:07;4.93;;;2.55;;
52102;SDS011;38101;53.126;6.878;2023-08-07T13:12:35;6.32;;;2.42;;
52102;SDS011;38101;53.126;6.878;2023-08-07T13:15:02;6.95;;;2.83;;
52102;SDS011;38101;53.126;6.878;2023-08-07T13:17:33;6.57;;;2.63;;
52102;SDS011;38101;53.126;6.878;2023-08-07T13:20:00;5.50;;;2.55;;
52102;SDS011;38101;53.126;6.878;2023-08-07T13:22:26;7.25;;;2.60;;
52102;SDS011;38101;53.126;6.878;2023-08-07T13:24:52;4.72;;;2.40;;
52102;SDS011;38101;53.126;6.878;2023-08-07T13:27:18;5.28;;;2.50;;
52102;SDS011;38101;53.126;6.878;2023-08-07T13:29:44;6.35;;;2.60;;
52102;SDS011;38101;53.126;6.878;2023-08-07T13:32:09;8.00;;;2.50;;
52102;SDS011;38101;53.126;6.878;2023-08-07T13:34:36;7.03;;;2.75;;
52102;SDS011;38101;53.126;6.878;2023-08-07T13:37:02;7.63;;;2.67;;
52102;SDS011;38101;53.126;6.878;2023-08-07T13:39:34;6.03;;;2.58;;
52102;SDS011;38101;53.126;6.878;2023-08-07T13:42:00;6.03;;;2.58;;
52102;SDS011;38101;53.126;6.878;2023-08-07T13:44:26;8.57;;;3.00;;
52102;SDS011;38101;53.126;6.878;2023-08-07T13:46:51;8.45;;;3.33;;
52102;SDS011;38101;53.126;6.878;2023-08-07T13:49:17;4.93;;;2.65;;
52102;SDS011;38101;53.126;6.878;2023-08-07T13:51:45;7.40;;;2.80;;
52102;SDS011;38101;53.126;6.878;2023-08-07T13:54:11;6.45;;;2.90;;
52102;SDS011;38101;53.126;6.878;2023-08-07T13:56:36;6.32;;;2.65;;
52102;SDS011;38101;53.126;6.878;2023-08-07T13:59:02;6.60;;;2.53;;
52102;SDS011;38101;53.126;6.878;2023-08-07T14:01:28;7.60;;;2.67;;
52102;SDS011;38101;53.126;6.878;2023-08-07T14:03:54;6.53;;;2.85;;
52102;SDS011;38101;53.126;6.878;2023-08-07T14:06:19;6.13;;;3.05;;
52102;SDS011;38101;53.126;6.878;2023-08-07T14:08:46;7.32;;;2.97;;
52102;SDS011;38101;53.126;6.878;2023-08-07T14:11:12;8.48;;;3.30;;
52102;SDS011;38101;53.126;6.878;2023-08-07T14:13:39;7.22;;;3.17;;
52102;SDS011;38101;53.126;6.878;2023-08-07T14:16:05;5.43;;;2.70;;
52102;SDS011;38101;53.126;6.878;2023-08-07T14:18:32;11.35;;;3.22;;
52102;SDS011;38101;53.126;6.878;2023-08-07T14:20:57;6.50;;;2.60;;
52102;SDS011;38101;53.126;6.878;2023-08-07T14:23:23;7.88;;;2.60;;
52102;SDS011;38101;53.126;6.878;2023-08-07T14:25:49;7.72;;;2.60;;
52102;SDS011;38101;53.126;6.878;2023-08-07T14:28:16;8.07;;;2.60;;
52102;SDS011;38101;53.126;6.878;2023-08-07T14:30:42;4.68;;;2.53;;
52102;SDS011;38101;53.126;6.878;2023-08-07T14:33:08;7.40;;;3.17;;
52102;SDS011;38101;53.126;6.878;2023-08-07T14:35:33;8.30;;;2.70;;
52102;SDS011;38101;53.126;6.878;2023-08-07T14:37:59;9.32;;;2.97;;
52102;SDS011;38101;53.126;6.878;2023-08-07T14:40:25;6.70;;;2.53;;
52102;SDS011;38101;53.126;6.878;2023-08-07T14:42:53;6.75;;;2.58;;
52102;SDS011;38101;53.126;6.878;2023-08-07T14:45:19;6.72;;;2.70;;
52102;SDS011;38101;53.126;6.878;2023-08-07T14:47:45;8.27;;;2.92;;
52102;SDS011;38101;53.126;6.878;2023-08-07T14:50:11;6.43;;;2.60;;
52102;SDS011;38101;53.126;6.878;2023-08-07T14:52:36;5.63;;;2.67;;
52102;SDS011;38101;53.126;6.878;2023-08-07T14:55:02;6.22;;;2.20;;
52102;SDS011;38101;53.126;6.878;2023-08-07T14:57:28;4.60;;;2.38;;